Time;durP1;ratioP1;P1;durP2;ratioP2;P2;SDS_P1;SDS_P2;PMS_P1;PMS_P2;Temp;Humidity;BMP_temperature;BMP_pressure;BME280_temperature;BME280_humidity;BME280_pressure;Samples;Min_cycle;Max_cycle;Signal;HPM_P1;HPM_P2
2022/04/02 00:00:05;;;;;;;6.00;3.72;;;;;;;;;;7397991;19;20018;-79
2022/04/02 00:02:30;;;;;;;5.43;3.33;;;;;;;;;;7397069;19;20034;-78
2022/04/02 00:04:55;;;;;;;5.20;3.13;;;;;;;;;;7399226;19;20042;-79
2022/04/02 00:07:20;;;;;;;4.78;3.47;;;;;;;;;;7399989;19;20363;-79
2022/04/02 00:09:46;;;;;;;5.85;3.20;;;;;;;;;;7396648;19;20032;-80
2022/04/02 00:12:11;;;;;;;6.45;3.67;;;;;;;;;;7396523;19;20018;-79
2022/04/02 00:14:36;;;;;;;6.35;3.88;;;;;;;;;;7398342;19;20447;-80
2022/04/02 00:17:02;;;;;;;6.53;4.55;;;;;;;;;;7397432;19;20067;-80
2022/04/02 00:19:29;;;;;;;5.50;3.65;;;;;;;;;;7398468;19;20397;-80
2022/04/02 00:21:54;;;;;;;6.18;3.45;;;;;;;;;;7396628;19;20122;-79
2022/04/02 00:24:19;;;;;;;4.68;3.30;;;;;;;;;;7403188;19;20043;-78
2022/04/02 00:26:45;;;;;;;4.82;3.28;;;;;;;;;;7406063;19;20013;-78
2022/04/02 00:29:11;;;;;;;5.63;3.78;;;;;;;;;;7405050;19;20031;-78
2022/04/02 00:31:37;;;;;;;4.00;2.95;;;;;;;;;;7409100;19;20031;-78
2022/04/02 00:34:02;;;;;;;5.90;3.65;;;;;;;;;;7411036;19;20002;-78
2022/04/02 00:36:27;;;;;;;6.78;4.60;;;;;;;;;;7409954;19;20018;-78
2022/04/02 00:38:53;;;;;;;5.10;3.22;;;;;;;;;;7409452;19;20007;-78
2022/04/02 00:41:19;;;;;;;5.78;3.38;;;;;;;;;;7405894;19;20014;-78
2022/04/02 00:44:07;;;;;;;4.75;3.35;;;;;;;;;;7404197;19;20026;-78
2022/04/02 00:46:32;;;;;;;4.97;3.38;;;;;;;;;;7409945;19;20006;-78
2022/04/02 00:48:57;;;;;;;5.07;3.10;;;;;;;;;;7407103;19;20006;-78
2022/04/02 00:51:23;;;;;;;3.83;2.90;;;;;;;;;;7408532;19;20018;-78
2022/04/02 00:53:50;;;;;;;3.55;2.75;;;;;;;;;;7409366;19;20003;-79
2022/04/02 00:56:16;;;;;;;4.85;3.33;;;;;;;;;;7409047;19;20271;-79
2022/04/02 00:58:42;;;;;;;4.38;2.63;;;;;;;;;;7407607;19;20151;-79
2022/04/02 01:01:07;;;;;;;4.57;3.28;;;;;;;;;;7410556;19;20039;-79
2022/04/02 01:03:34;;;;;;;4.15;3.03;;;;;;;;;;7407887;19;20010;-78
2022/04/02 01:05:59;;;;;;;3.65;2.45;;;;;;;;;;7411426;19;20351;-79
2022/04/02 01:08:24;;;;;;;4.72;2.78;;;;;;;;;;7406115;19;20013;-79
2022/04/02 01:10:50;;;;;;;5.47;3.10;;;;;;;;;;7409750;19;20017;-79
2022/04/02 01:13:16;;;;;;;4.53;2.97;;;;;;;;;;7406993;19;20014;-78
2022/04/02 01:15:41;;;;;;;5.72;4.05;;;;;;;;;;7409002;19;20033;-79
2022/04/02 01:18:07;;;;;;;3.83;2.78;;;;;;;;;;7409721;19;20011;-79
2022/04/02 01:20:33;;;;;;;4.47;3.17;;;;;;;;;;7409593;19;20167;-79
2022/04/02 01:22:59;;;;;;;6.32;3.67;;;;;;;;;;7403941;19;20051;-78
2022/04/02 01:25:31;;;;;;;4.88;3.35;;;;;;;;;;7407932;19;20006;-78
2022/04/02 01:27:57;;;;;;;6.05;2.83;;;;;;;;;;7404502;19;20044;-78
2022/04/02 01:30:22;;;;;;;6.50;3.88;;;;;;;;;;7403634;19;20070;-78
2022/04/02 01:32:47;;;;;;;5.90;3.35;;;;;;;;;;7402892;19;20062;-78
2022/04/02 01:35:14;;;;;;;5.32;3.10;;;;;;;;;;7407163;19;20007;-78
2022/04/02 01:37:39;;;;;;;4.53;2.70;;;;;;;;;;7407261;19;20022;-78
2022/04/02 01:40:06;;;;;;;4.22;3.30;;;;;;;;;;7401089;19;20018;-77
2022/04/02 01:42:32;;;;;;;5.13;3.25;;;;;;;;;;7403767;19;20112;-78
2022/04/02 01:44:58;;;;;;;4.32;2.67;;;;;;;;;;7406621;19;20013;-78
2022/04/02 01:47:23;;;;;;;4.18;2.45;;;;;;;;;;7403717;19;20019;-78
2022/04/02 01:49:49;;;;;;;3.55;2.55;;;;;;;;;;7402588;19;20010;-78
2022/04/02 01:52:16;;;;;;;4.72;3.45;;;;;;;;;;7404305;19;20067;-78
2022/04/02 01:54:42;;;;;;;4.25;3.15;;;;;;;;;;7406921;19;20047;-78
2022/04/02 01:57:07;;;;;;;4.72;3.13;;;;;;;;;;7405237;19;20014;-78
2022/04/02 01:59:32;;;;;;;3.47;2.63;;;;;;;;;;7405034;19;20073;-78
2022/04/02 02:01:58;;;;;;;5.30;3.25;;;;;;;;;;7405911;19;20014;-78
2022/04/02 02:04:24;;;;;;;4.30;2.95;;;;;;;;;;7401560;19;20030;-78
2022/04/02 02:06:49;;;;;;;4.90;2.90;;;;;;;;;;7406592;19;20494;-78
2022/04/02 02:09:15;;;;;;;3.63;2.58;;;;;;;;;;7403284;19;20002;-78
2022/04/02 02:11:41;;;;;;;4.03;2.70;;;;;;;;;;7405720;19;20007;-78
2022/04/02 02:14:07;;;;;;;3.90;3.00;;;;;;;;;;7402820;19;20042;-78
2022/04/02 02:16:32;;;;;;;4.75;3.13;;;;;;;;;;7403813;19;20011;-78
2022/04/02 02:18:58;;;;;;;4.07;2.75;;;;;;;;;;7403068;19;20112;-78
2022/04/02 02:21:23;;;;;;;4.93;3.03;;;;;;;;;;7402864;19;20466;-77
2022/04/02 02:23:48;;;;;;;4.57;2.85;;;;;;;;;;7402973;19;20010;-78
2022/04/02 02:26:14;;;;;;;5.07;2.65;;;;;;;;;;7404461;19;20052;-78
2022/04/02 02:28:41;;;;;;;4.85;2.95;;;;;;;;;;7395966;19;20010;-79
2022/04/02 02:31:06;;;;;;;3.72;2.58;;;;;;;;;;7400378;19;20015;-79
2022/04/02 02:36:17;;;;;;;4.63;3.00;;;;;;;;;;7401310;19;20016;-78
2022/04/02 02:38:43;;;;;;;5.22;3.20;;;;;;;;;;7401816;19;20042;-78
2022/04/02 02:41:10;;;;;;;4.90;3.20;;;;;;;;;;7403581;19;20058;-78
2022/04/02 02:43:35;;;;;;;5.53;3.40;;;;;;;;;;7401568;19;20021;-78
2022/04/02 02:46:01;;;;;;;5.63;3.00;;;;;;;;;;7402201;19;20326;-79
2022/04/02 02:48:26;;;;;;;5.50;2.88;;;;;;;;;;7404765;19;20011;-79
2022/04/02 02:50:51;;;;;;;4.22;3.15;;;;;;;;;;7405311;19;20007;-78
2022/04/02 02:53:17;;;;;;;5.80;3.22;;;;;;;;;;7409500;19;20014;-78
2022/04/02 02:55:43;;;;;;;6.85;3.17;;;;;;;;;;7413034;19;20044;-78
2022/04/02 02:58:09;;;;;;;5.72;3.60;;;;;;;;;;7409894;19;20010;-77
2022/04/02 03:00:34;;;;;;;4.40;3.03;;;;;;;;;;7410031;19;20176;-78
2022/04/02 03:03:00;;;;;;;4.90;3.20;;;;;;;;;;7398358;19;20074;-79
2022/04/02 03:05:25;;;;;;;4.90;3.17;;;;;;;;;;7399852;19;20096;-79
2022/04/02 03:07:51;;;;;;;5.63;3.63;;;;;;;;;;7396270;19;20367;-79
2022/04/02 03:10:23;;;;;;;4.90;3.08;;;;;;;;;;7395281;19;20003;-80
2022/04/02 03:12:51;;;;;;;7.82;3.33;;;;;;;;;;7397667;19;20032;-79
2022/04/02 03:15:18;;;;;;;5.47;3.35;;;;;;;;;;7398621;19;20013;-80
2022/04/02 03:17:44;;;;;;;4.60;3.13;;;;;;;;;;7397425;19;20011;-78
2022/04/02 03:20:11;;;;;;;5.85;3.88;;;;;;;;;;7399342;19;20342;-78
2022/04/02 03:22:40;;;;;;;6.38;3.83;;;;;;;;;;7394087;19;20109;-78
2022/04/02 03:25:10;;;;;;;5.30;3.15;;;;;;;;;;7397812;19;20150;-79
2022/04/02 03:27:37;;;;;;;6.70;3.60;;;;;;;;;;7398921;19;19994;-79
2022/04/02 03:30:05;;;;;;;5.72;3.72;;;;;;;;;;7398013;19;20472;-79
2022/04/02 03:32:31;;;;;;;4.88;3.35;;;;;;;;;;7394829;19;20010;-80
2022/04/02 03:34:57;;;;;;;6.93;4.07;;;;;;;;;;7399482;19;20005;-80
2022/04/02 03:37:24;;;;;;;5.55;3.47;;;;;;;;;;7398237;19;20031;-80
2022/04/02 03:39:50;;;;;;;5.88;3.53;;;;;;;;;;7395970;19;20383;-80
2022/04/02 03:42:15;;;;;;;6.25;3.53;;;;;;;;;;7398509;19;20621;-80
2022/04/02 03:44:41;;;;;;;7.10;3.33;;;;;;;;;;7395768;19;20082;-80
2022/04/02 03:47:09;;;;;;;5.97;3.90;;;;;;;;;;7396661;19;20003;-80
2022/04/02 03:49:39;;;;;;;6.30;3.90;;;;;;;;;;7397344;19;20006;-80
2022/04/02 03:52:06;;;;;;;8.90;4.68;;;;;;;;;;7395089;19;20048;-81
2022/04/02 03:54:32;;;;;;;5.38;3.83;;;;;;;;;;7393624;19;20009;-81
2022/04/02 03:56:58;;;;;;;5.03;3.50;;;;;;;;;;7395431;19;20006;-80
2022/04/02 03:59:23;;;;;;;5.22;3.28;;;;;;;;;;7398665;19;20473;-80
2022/04/02 04:01:48;;;;;;;5.38;3.55;;;;;;;;;;7393587;19;20011;-80
2022/04/02 04:04:14;;;;;;;6.15;3.85;;;;;;;;;;7396780;19;20010;-80
2022/04/02 04:06:39;;;;;;;6.63;3.80;;;;;;;;;;7399193;19;20051;-80
2022/04/02 04:09:05;;;;;;;5.50;3.20;;;;;;;;;;7396150;19;20002;-81
2022/04/02 04:11:30;;;;;;;4.80;3.10;;;;;;;;;;7398374;19;20049;-80
2022/04/02 04:13:56;;;;;;;6.35;3.67;;;;;;;;;;7395371;19;20310;-81
2022/04/02 04:16:22;;;;;;;7.65;3.75;;;;;;;;;;7394493;19;20011;-81
2022/04/02 04:18:48;;;;;;;5.22;3.70;;;;;;;;;;7397044;19;20394;-81
2022/04/02 04:21:14;;;;;;;6.93;4.00;;;;;;;;;;7395152;19;20011;-80
2022/04/02 04:23:40;;;;;;;5.35;3.40;;;;;;;;;;7397945;19;20128;-81
2022/04/02 04:26:05;;;;;;;5.50;3.42;;;;;;;;;;7398964;19;20554;-82
2022/04/02 04:28:31;;;;;;;7.40;3.28;;;;;;;;;;7396690;19;20017;-81
2022/04/02 04:30:56;;;;;;;8.98;3.28;;;;;;;;;;7395623;19;20084;-81
2022/04/02 04:33:21;;;;;;;8.45;3.83;;;;;;;;;;7394639;19;20014;-80
2022/04/02 04:35:47;;;;;;;6.25;3.63;;;;;;;;;;7398911;19;20091;-80
2022/04/02 04:38:12;;;;;;;6.05;3.90;;;;;;;;;;7424086;19;20024;-80
2022/04/02 04:40:38;;;;;;;5.57;3.10;;;;;;;;;;7426717;19;20006;-80
2022/04/02 04:43:03;;;;;;;7.07;3.33;;;;;;;;;;7424016;19;20034;-80
2022/04/02 04:45:29;;;;;;;9.05;3.83;;;;;;;;;;7425941;19;20006;-80
2022/04/02 04:47:54;;;;;;;7.20;3.70;;;;;;;;;;7410657;19;20018;-81
2022/04/02 04:50:19;;;;;;;8.55;3.97;;;;;;;;;;7394911;19;20015;-81
2022/04/02 04:52:45;;;;;;;6.85;3.80;;;;;;;;;;7395226;19;20014;-82
2022/04/02 04:55:10;;;;;;;5.50;3.08;;;;;;;;;;7396188;19;20032;-81
2022/04/02 04:57:36;;;;;;;5.35;3.67;;;;;;;;;;7393165;19;20050;-81
2022/04/02 05:00:02;;;;;;;6.03;2.83;;;;;;;;;;7395210;19;20007;-81
2022/04/02 05:02:27;;;;;;;7.40;3.70;;;;;;;;;;7383977;19;20018;-81
2022/04/02 05:04:52;;;;;;;3.95;2.40;;;;;;;;;;7389812;19;20041;-81
2022/04/02 05:07:31;;;;;;;4.72;2.90;;;;;;;;;;7389946;19;20002;-81
2022/04/02 05:10:29;;;;;;;9.95;2.90;;;;;;;;;;7386888;19;20006;-80
2022/04/02 05:12:57;;;;;;;6.05;2.60;;;;;;;;;;7388402;19;20329;-81
2022/04/02 05:15:55;;;;;;;5.47;2.70;;;;;;;;;;7389165;19;20713;-81
2022/04/02 05:19:02;;;;;;;7.32;3.38;;;;;;;;;;7394306;19;20015;-81
2022/04/02 05:21:27;;;;;;;5.13;3.22;;;;;;;;;;7392307;19;20011;-83
2022/04/02 05:23:53;;;;;;;6.78;2.92;;;;;;;;;;7393787;19;20009;-84
2022/04/02 05:30:11;;;;;;;4.22;2.30;;;;;;;;;;7396268;19;20010;-81
2022/04/02 05:32:36;;;;;;;6.03;2.60;;;;;;;;;;7392828;19;20144;-82
2022/04/02 05:35:04;;;;;;;4.95;2.60;;;;;;;;;;7399026;19;20029;-81
2022/04/02 05:37:30;;;;;;;3.50;2.10;;;;;;;;;;7397453;19;20079;-82
2022/04/02 05:39:56;;;;;;;6.25;3.85;;;;;;;;;;7398005;19;20548;-80
2022/04/02 05:42:22;;;;;;;3.63;2.60;;;;;;;;;;7401618;19;20068;-80
2022/04/02 05:44:48;;;;;;;4.57;2.63;;;;;;;;;;7398815;19;20041;-80
2022/04/02 05:47:13;;;;;;;5.05;2.70;;;;;;;;;;7403153;19;20010;-79
2022/04/02 05:49:38;;;;;;;5.43;2.80;;;;;;;;;;7400011;19;20461;-82
2022/04/02 05:52:04;;;;;;;4.07;2.70;;;;;;;;;;7399934;19;20422;-80
2022/04/02 05:54:31;;;;;;;4.30;3.03;;;;;;;;;;7399832;19;20003;-80
2022/04/02 05:56:56;;;;;;;5.55;2.92;;;;;;;;;;7402782;19;20010;-80
2022/04/02 05:59:22;;;;;;;5.28;2.58;;;;;;;;;;7400204;19;20140;-81
2022/04/02 06:01:48;;;;;;;5.10;2.53;;;;;;;;;;7401954;19;20078;-81
2022/04/02 06:04:14;;;;;;;3.72;2.22;;;;;;;;;;7401469;19;20029;-81
2022/04/02 06:06:39;;;;;;;3.47;2.30;;;;;;;;;;7400630;19;20006;-82
2022/04/02 06:09:05;;;;;;;3.40;2.10;;;;;;;;;;7398286;19;20018;-82
2022/04/02 06:11:30;;;;;;;5.57;2.38;;;;;;;;;;7400344;19;20002;-81
2022/04/02 06:13:57;;;;;;;7.85;2.95;;;;;;;;;;7399703;19;20497;-81
2022/04/02 06:16:23;;;;;;;4.72;2.47;;;;;;;;;;7401898;19;20071;-82
2022/04/02 06:18:49;;;;;;;3.50;2.45;;;;;;;;;;7399694;19;20074;-81
2022/04/02 06:21:14;;;;;;;4.95;2.40;;;;;;;;;;7402022;19;20007;-82
2022/04/02 06:23:39;;;;;;;3.45;2.33;;;;;;;;;;7399453;19;20074;-81
2022/04/02 06:26:05;;;;;;;5.03;2.95;;;;;;;;;;7401276;19;20023;-82
2022/04/02 06:28:30;;;;;;;3.45;2.55;;;;;;;;;;7406568;19;20007;-82
2022/04/02 06:30:56;;;;;;;5.78;2.85;;;;;;;;;;7406911;19;20326;-81
2022/04/02 06:33:22;;;;;;;6.30;2.15;;;;;;;;;;7402797;19;20038;-82
2022/04/02 06:35:47;;;;;;;4.70;2.13;;;;;;;;;;7404898;19;20007;-82
2022/04/02 06:38:13;;;;;;;4.72;2.83;;;;;;;;;;7402925;19;20010;-81
2022/04/02 06:40:39;;;;;;;4.25;2.17;;;;;;;;;;7408555;19;20439;-83
2022/04/02 06:43:05;;;;;;;3.70;2.45;;;;;;;;;;7401359;19;20315;-81
2022/04/02 06:45:30;;;;;;;5.43;1.92;;;;;;;;;;7407919;19;20021;-82
2022/04/02 06:47:55;;;;;;;4.65;2.72;;;;;;;;;;7404900;19;20006;-82
2022/04/02 06:50:21;;;;;;;4.63;2.40;;;;;;;;;;7403533;19;20308;-81
2022/04/02 06:52:46;;;;;;;8.50;3.22;;;;;;;;;;7406534;19;20291;-82
2022/04/02 06:55:13;;;;;;;8.07;2.72;;;;;;;;;;7407351;19;20006;-81
2022/04/02 06:57:49;;;;;;;7.07;2.72;;;;;;;;;;7407609;19;20050;-82
2022/04/02 07:00:15;;;;;;;4.03;2.10;;;;;;;;;;7405263;19;20003;-82
2022/04/02 07:02:41;;;;;;;5.63;2.33;;;;;;;;;;7406634;19;20027;-81
2022/04/02 07:05:06;;;;;;;9.10;3.13;;;;;;;;;;7407543;19;20007;-81
2022/04/02 07:07:32;;;;;;;5.50;1.95;;;;;;;;;;7406085;19;20081;-81
2022/04/02 07:09:57;;;;;;;4.80;2.38;;;;;;;;;;7405796;19;20039;-82
2022/04/02 07:12:23;;;;;;;5.47;2.53;;;;;;;;;;7411488;19;20002;-82
2022/04/02 07:14:48;;;;;;;3.70;2.60;;;;;;;;;;7406154;19;20374;-84
2022/04/02 07:17:14;;;;;;;5.22;2.85;;;;;;;;;;7409057;19;20006;-83
2022/04/02 07:19:40;;;;;;;5.82;2.65;;;;;;;;;;7409906;19;20019;-82
2022/04/02 07:22:09;;;;;;;5.68;2.15;;;;;;;;;;7407402;19;20018;-82
2022/04/02 07:24:39;;;;;;;4.72;2.10;;;;;;;;;;7419705;19;20013;-81
2022/04/02 07:27:05;;;;;;;4.20;2.30;;;;;;;;;;7418708;19;20018;-83
2022/04/02 07:29:34;;;;;;;3.55;2.38;;;;;;;;;;7403342;19;20105;-82
2022/04/02 07:31:59;;;;;;;4.78;2.53;;;;;;;;;;7402103;19;20021;-80
2022/04/02 07:34:25;;;;;;;4.70;2.58;;;;;;;;;;7404885;19;20454;-82
2022/04/02 07:37:23;;;;;;;5.68;2.15;;;;;;;;;;7407678;19;20019;-82
2022/04/02 07:39:52;;;;;;;3.92;2.33;;;;;;;;;;7398032;19;20353;-80
2022/04/02 07:42:43;;;;;;;5.13;2.88;;;;;;;;;;7400553;19;20111;-82
2022/04/02 07:45:13;;;;;;;7.10;3.53;;;;;;;;;;7400989;19;20041;-82
2022/04/02 07:47:45;;;;;;;6.93;3.55;;;;;;;;;;7362085;19;20015;-80
2022/04/02 07:50:13;;;;;;;7.03;2.47;;;;;;;;;;7398091;19;20002;-81
2022/04/02 07:52:54;;;;;;;5.45;3.03;;;;;;;;;;7392371;19;20012;-82
2022/04/02 07:55:20;;;;;;;4.20;2.80;;;;;;;;;;7398130;19;20007;-82
2022/04/02 07:57:48;;;;;;;8.05;3.38;;;;;;;;;;7408199;19;20007;-82
2022/04/02 08:00:16;;;;;;;4.97;3.13;;;;;;;;;;7405974;19;20017;-81
2022/04/02 08:02:44;;;;;;;7.55;2.83;;;;;;;;;;7407798;19;20010;-82
2022/04/02 08:05:11;;;;;;;5.55;3.00;;;;;;;;;;7406265;19;20031;-81
2022/04/02 08:07:39;;;;;;;8.50;4.00;;;;;;;;;;7402797;19;20011;-81
2022/04/02 08:10:10;;;;;;;5.20;3.45;;;;;;;;;;7396813;19;20292;-82
2022/04/02 08:12:37;;;;;;;5.43;3.22;;;;;;;;;;7403461;19;20014;-82
2022/04/02 08:15:05;;;;;;;10.07;4.00;;;;;;;;;;7399856;19;20096;-82
2022/04/02 08:17:31;;;;;;;7.50;3.55;;;;;;;;;;7400327;19;20549;-81
2022/04/02 08:19:57;;;;;;;6.93;4.07;;;;;;;;;;7405818;19;20031;-82
2022/04/02 08:22:23;;;;;;;5.13;3.70;;;;;;;;;;7392159;19;20355;-83
2022/04/02 08:24:48;;;;;;;5.88;3.53;;;;;;;;;;7394924;19;20292;-81
2022/04/02 08:27:36;;;;;;;7.57;3.72;;;;;;;;;;7396104;19;19994;-82
2022/04/02 08:30:11;;;;;;;6.22;3.30;;;;;;;;;;7388500;19;20523;-82
2022/04/02 08:32:56;;;;;;;;;;;;;;;;;;7390386;19;20385;-81
2022/04/02 08:35:34;;;;;;;6.88;3.30;;;;;;;;;;7390525;19;20496;-82
2022/04/02 08:38:20;;;;;;;6.35;3.80;;;;;;;;;;7397325;19;20019;-82
2022/04/02 08:41:14;;;;;;;6.00;2.72;;;;;;;;;;7391530;19;20017;-83
2022/04/02 08:44:27;;;;;;;6.97;3.40;;;;;;;;;;7390617;19;20024;-82
2022/04/02 08:47:20;;;;;;;9.27;3.60;;;;;;;;;;7390709;19;20011;-82
2022/04/02 08:50:14;;;;;;;11.05;3.88;;;;;;;;;;7393421;19;20115;-82
2022/04/02 08:53:00;;;;;;;5.82;3.33;;;;;;;;;;7394308;19;20032;-82
2022/04/02 08:55:34;;;;;;;8.20;3.95;;;;;;;;;;7395330;19;20450;-82
2022/04/02 08:58:21;;;;;;;4.35;3.30;;;;;;;;;;7394729;19;20015;-81
2022/04/02 09:01:04;;;;;;;9.38;3.65;;;;;;;;;;7396136;19;20608;-82
2022/04/02 09:04:05;;;;;;;5.50;3.88;;;;;;;;;;7392282;19;20009;-82
2022/04/02 09:06:50;;;;;;;7.10;3.65;;;;;;;;;;7394196;19;20096;-81
2022/04/02 09:09:26;;;;;;;9.07;4.25;;;;;;;;;;7393679;19;20003;-81
2022/04/02 09:12:19;;;;;;;9.52;3.92;;;;;;;;;;7394204;19;20010;-81
2022/04/02 09:15:11;;;;;;;10.15;4.15;;;;;;;;;;7392920;19;20007;-82
2022/04/02 09:17:59;;;;;;;5.65;3.17;;;;;;;;;;7388170;19;20010;-81
2022/04/02 09:20:37;;;;;;;6.93;3.42;;;;;;;;;;7394635;19;20002;-82
2022/04/02 09:23:07;;;;;;;6.28;3.78;;;;;;;;;;7392594;19;20031;-81
2022/04/02 09:26:07;;;;;;;9.23;4.15;;;;;;;;;;7391821;19;19998;-81
2022/04/02 09:28:45;;;;;;;8.70;3.72;;;;;;;;;;7388304;19;20010;-82
2022/04/02 09:31:45;;;;;;;8.95;3.30;;;;;;;;;;7390790;19;20003;-82
2022/04/02 09:34:20;;;;;;;6.88;3.75;;;;;;;;;;7394514;19;20026;-82
2022/04/02 09:36:48;;;;;;;8.50;4.50;;;;;;;;;;7393883;19;20015;-81
2022/04/02 09:39:19;;;;;;;11.65;4.65;;;;;;;;;;7389457;19;20005;-82
2022/04/02 09:42:15;;;;;;;7.57;4.00;;;;;;;;;;7390194;19;20010;-81
2022/04/02 09:44:56;;;;;;;7.57;4.03;;;;;;;;;;7389681;19;20032;-82
2022/04/02 09:47:43;;;;;;;8.07;3.78;;;;;;;;;;7392377;19;20002;-82
2022/04/02 09:50:24;;;;;;;7.50;4.18;;;;;;;;;;7394449;19;20002;-81
2022/04/02 09:53:11;;;;;;;8.40;3.97;;;;;;;;;;7390954;19;20026;-82
2022/04/02 09:55:54;;;;;;;10.90;3.95;;;;;;;;;;7393968;19;20103;-82
2022/04/02 09:58:43;;;;;;;5.38;3.38;;;;;;;;;;7394487;19;20104;-82
2022/04/02 10:01:38;;;;;;;8.38;4.30;;;;;;;;;;7392293;19;20070;-82
2022/04/02 10:04:40;;;;;;;10.70;4.25;;;;;;;;;;7395370;19;20027;-81
2022/04/02 10:07:31;;;;;;;7.72;4.00;;;;;;;;;;7394017;19;20017;-81
2022/04/02 10:09:57;;;;;;;6.50;3.60;;;;;;;;;;7393744;19;20019;-81
2022/04/02 10:12:26;;;;;;;5.05;3.40;;;;;;;;;;7392007;19;20021;-82
2022/04/02 10:14:57;;;;;;;9.70;4.38;;;;;;;;;;7389057;19;20047;-81
2022/04/02 10:17:25;;;;;;;7.00;4.53;;;;;;;;;;7391679;19;20017;-81
2022/04/02 10:19:53;;;;;;;5.93;3.92;;;;;;;;;;7391342;19;20010;-81
2022/04/02 10:22:25;;;;;;;11.07;4.82;;;;;;;;;;7392818;19;20015;-82
2022/04/02 10:24:51;;;;;;;7.43;4.05;;;;;;;;;;7393500;19;20454;-81
2022/04/02 10:27:31;;;;;;;10.75;4.30;;;;;;;;;;7392678;19;20028;-82
2022/04/02 10:29:59;;;;;;;14.48;3.88;;;;;;;;;;7392600;19;20104;-82
2022/04/02 10:32:30;;;;;;;6.47;3.53;;;;;;;;;;7392883;19;20091;-81
2022/04/02 10:35:05;;;;;;;7.47;4.30;;;;;;;;;;7391165;19;20458;-82
2022/04/02 10:37:43;;;;;;;6.70;4.18;;;;;;;;;;7393592;19;20027;-81
2022/04/02 10:40:12;;;;;;;5.18;3.67;;;;;;;;;;7392395;19;20010;-81
2022/04/02 10:42:40;;;;;;;6.20;3.88;;;;;;;;;;7390459;19;20355;-81
2022/04/02 10:45:08;;;;;;;9.57;4.05;;;;;;;;;;7392973;19;20410;-81
2022/04/02 10:47:47;;;;;;;4.85;3.35;;;;;;;;;;7387136;19;20448;-81
2022/04/02 10:50:17;;;;;;;4.65;3.63;;;;;;;;;;7391053;19;20014;-81
2022/04/02 10:52:46;;;;;;;7.85;4.07;;;;;;;;;;7388946;19;20031;-81
2022/04/02 10:55:20;;;;;;;5.05;3.72;;;;;;;;;;7391973;19;19995;-81
2022/04/02 10:57:46;;;;;;;4.63;3.42;;;;;;;;;;7389490;19;20011;-82
2022/04/02 11:00:13;;;;;;;5.68;3.25;;;;;;;;;;7392194;19;20126;-80
2022/04/02 11:02:46;;;;;;;5.72;2.85;;;;;;;;;;7389183;19;20007;-81
2022/04/02 11:05:16;;;;;;;5.80;3.05;;;;;;;;;;7395596;19;20007;-80
2022/04/02 11:07:44;;;;;;;4.45;3.22;;;;;;;;;;7391811;19;19999;-82
2022/04/02 11:10:20;;;;;;;8.93;3.80;;;;;;;;;;7389162;19;19999;-81
2022/04/02 11:12:48;;;;;;;6.85;3.70;;;;;;;;;;7393493;19;20010;-82
2022/04/02 11:15:21;;;;;;;6.80;3.72;;;;;;;;;;7399056;19;20018;-81
2022/04/02 11:17:49;;;;;;;4.63;3.40;;;;;;;;;;7399024;19;20422;-80
2022/04/02 11:20:22;;;;;;;7.60;3.28;;;;;;;;;;7397855;19;20010;-81
2022/04/02 11:22:57;;;;;;;11.75;3.42;;;;;;;;;;7398094;19;20038;-81
2022/04/02 11:25:28;;;;;;;5.15;2.72;;;;;;;;;;7399850;19;20003;-80
2022/04/02 11:28:00;;;;;;;5.53;3.60;;;;;;;;;;7397365;19;20078;-81
2022/04/02 11:30:31;;;;;;;6.20;3.40;;;;;;;;;;7397763;19;20011;-81
2022/04/02 11:33:02;;;;;;;7.60;3.03;;;;;;;;;;7397903;19;20125;-80
2022/04/02 11:35:29;;;;;;;6.95;3.20;;;;;;;;;;7400625;19;19999;-79
2022/04/02 11:38:14;;;;;;;6.53;3.25;;;;;;;;;;7401224;19;20010;-81
2022/04/02 11:40:45;;;;;;;6.70;3.60;;;;;;;;;;7408319;19;20006;-79
2022/04/02 11:43:12;;;;;;;6.85;3.05;;;;;;;;;;7420937;19;20043;-79
2022/04/02 11:45:40;;;;;;;7.88;3.58;;;;;;;;;;7421267;19;20141;-80
2022/04/02 11:48:13;;;;;;;4.75;3.50;;;;;;;;;;7424191;19;20014;-79
2022/04/02 11:50:43;;;;;;;6.97;4.20;;;;;;;;;;7425971;19;20011;-79
2022/04/02 11:53:09;;;;;;;4.88;3.80;;;;;;;;;;7397814;19;20002;-78
2022/04/02 11:55:36;;;;;;;5.55;4.03;;;;;;;;;;7401105;19;20016;-79
2022/04/02 11:58:10;;;;;;;5.72;3.22;;;;;;;;;;7400568;19;20118;-79
2022/04/02 12:00:37;;;;;;;4.57;3.45;;;;;;;;;;7400032;19;19995;-79
2022/04/02 12:03:05;;;;;;;5.28;3.92;;;;;;;;;;7396080;19;20010;-79
2022/04/02 12:05:41;;;;;;;5.28;3.70;;;;;;;;;;7401136;19;20066;-79
2022/04/02 12:08:07;;;;;;;6.45;4.07;;;;;;;;;;7399299;19;20066;-79
2022/04/02 12:10:34;;;;;;;4.80;3.53;;;;;;;;;;7400737;19;20047;-79
2022/04/02 12:13:03;;;;;;;5.50;3.35;;;;;;;;;;7396752;19;20018;-79
2022/04/02 12:15:28;;;;;;;7.90;4.22;;;;;;;;;;7398621;19;20082;-80
2022/04/02 12:18:08;;;;;;;5.88;3.67;;;;;;;;;;7398361;19;20015;-79
2022/04/02 12:20:37;;;;;;;7.10;4.25;;;;;;;;;;7399253;19;20010;-79
2022/04/02 12:23:16;;;;;;;4.85;3.40;;;;;;;;;;7395882;19;20007;-79
2022/04/02 12:26:03;;;;;;;5.22;3.15;;;;;;;;;;7399873;19;20010;-79
2022/04/02 12:28:29;;;;;;;6.35;3.00;;;;;;;;;;7399292;19;20349;-79
2022/04/02 12:31:04;;;;;;;4.05;2.72;;;;;;;;;;7399284;19;20023;-79
2022/04/02 12:33:30;;;;;;;3.95;2.97;;;;;;;;;;7395200;19;20010;-79
2022/04/02 12:35:58;;;;;;;3.75;2.80;;;;;;;;;;7397596;19;19998;-79
2022/04/02 12:38:32;;;;;;;3.90;2.65;;;;;;;;;;7394462;19;20015;-80
2022/04/02 12:40:59;;;;;;;5.25;3.35;;;;;;;;;;7397306;19;20014;-80
2022/04/02 12:43:32;;;;;;;8.32;4.60;;;;;;;;;;7393419;19;19999;-80
2022/04/02 12:45:59;;;;;;;3.53;2.60;;;;;;;;;;7397248;19;20006;-80
2022/04/02 12:48:26;;;;;;;3.47;2.42;;;;;;;;;;7390640;19;20727;-80
2022/04/02 12:50:59;;;;;;;3.88;2.47;;;;;;;;;;7396873;19;20006;-80
2022/04/02 12:53:36;;;;;;;3.35;2.25;;;;;;;;;;7393142;19;20010;-80
2022/04/02 12:56:06;;;;;;;3.40;2.53;;;;;;;;;;7396179;19;20572;-80
2022/04/02 12:58:40;;;;;;;3.40;2.63;;;;;;;;;;7395804;19;20006;-80
2022/04/02 13:01:15;;;;;;;3.80;2.70;;;;;;;;;;7396067;19;20026;-80
2022/04/02 13:03:44;;;;;;;;;;;;;;;;;;7395001;19;20667;-80
2022/04/02 13:06:29;;;;;;;2.92;2.10;;;;;;;;;;7393851;19;20011;-80
2022/04/02 13:09:01;;;;;;;4.22;2.70;;;;;;;;;;7393820;19;20462;-81
2022/04/02 13:11:52;;;;;;;5.07;2.78;;;;;;;;;;7393714;19;20017;-81
2022/04/02 13:14:22;;;;;;;3.30;2.42;;;;;;;;;;7391903;19;20017;-81
2022/04/02 13:16:54;;;;;;;5.78;3.30;;;;;;;;;;7395541;19;20024;-80
2022/04/02 13:22:08;;;;;;;4.32;3.13;;;;;;;;;;7394666;19;20009;-80
2022/04/02 13:24:44;;;;;;;3.50;2.30;;;;;;;;;;7394534;19;20033;-80
2022/04/02 13:27:28;;;;;;;3.70;2.38;;;;;;;;;;7393028;19;20054;-80
2022/04/02 13:30:05;;;;;;;4.85;2.85;;;;;;;;;;7395042;19;20032;-80
2022/04/02 13:33:06;;;;;;;4.70;3.15;;;;;;;;;;7393599;19;20011;-80
2022/04/02 13:35:50;;;;;;;4.18;2.50;;;;;;;;;;7390945;19;20010;-80
2022/04/02 13:38:27;;;;;;;3.97;2.60;;;;;;;;;;7395157;19;20013;-80
2022/04/02 13:40:55;;;;;;;3.35;2.58;;;;;;;;;;7395859;19;19990;-80
2022/04/02 13:43:28;;;;;;;5.35;2.80;;;;;;;;;;7392687;19;20038;-80
2022/04/02 13:45:57;;;;;;;4.95;3.08;;;;;;;;;;7396155;19;20002;-80
2022/04/02 13:48:26;;;;;;;2.80;2.50;;;;;;;;;;7392084;19;20015;-80
2022/04/02 13:51:03;;;;;;;2.60;2.40;;;;;;;;;;7393835;19;19998;-80
2022/04/02 13:53:42;;;;;;;4.60;2.47;;;;;;;;;;7394597;19;20007;-80
2022/04/02 13:56:12;;;;;;;4.00;2.58;;;;;;;;;;7394722;19;20022;-80
2022/04/02 13:58:43;;;;;;;2.53;2.13;;;;;;;;;;7390842;19;20097;-80
2022/04/02 14:01:16;;;;;;;3.53;2.08;;;;;;;;;;7389936;19;20028;-80
2022/04/02 14:03:47;;;;;;;4.80;2.70;;;;;;;;;;7393416;19;20006;-80
2022/04/02 14:06:17;;;;;;;3.15;2.20;;;;;;;;;;7394133;19;20089;-79
2022/04/02 14:08:57;;;;;;;4.03;2.10;;;;;;;;;;7392999;19;20002;-79
2022/04/02 14:11:53;;;;;;;3.45;1.80;;;;;;;;;;7395114;19;20003;-79
2022/04/02 14:14:22;;;;;;;3.70;2.50;;;;;;;;;;7393532;19;20003;-80
2022/04/02 14:17:05;;;;;;;3.58;2.30;;;;;;;;;;7393047;19;20390;-80
2022/04/02 14:19:42;;;;;;;5.38;2.60;;;;;;;;;;7391799;19;20140;-79
2022/04/02 14:22:08;;;;;;;2.60;2.10;;;;;;;;;;7391303;19;19998;-80
2022/04/02 14:24:54;;;;;;;4.03;2.92;;;;;;;;;;7393653;19;20014;-79
2022/04/02 14:27:38;;;;;;;4.30;1.83;;;;;;;;;;7393746;19;20082;-79
2022/04/02 14:30:13;;;;;;;4.65;2.80;;;;;;;;;;7393852;19;20070;-79
2022/04/02 14:32:57;;;;;;;;;;;;;;;;;;7391353;19;20014;-79
2022/04/02 14:35:54;;;;;;;3.42;1.63;;;;;;;;;;7392930;19;20307;-79
2022/04/02 14:38:44;;;;;;;2.60;1.88;;;;;;;;;;7393069;19;20002;-79
2022/04/02 14:41:21;;;;;;;3.70;1.70;;;;;;;;;;7395137;19;20019;-80
2022/04/02 14:44:16;;;;;;;5.07;1.73;;;;;;;;;;7394406;19;20002;-80
2022/04/02 14:47:14;;;;;;;2.97;2.08;;;;;;;;;;7394464;19;20005;-79
2022/04/02 14:50:10;;;;;;;11.82;5.20;;;;;;;;;;7399525;19;20019;-79
2022/04/02 14:52:55;;;;;;;4.93;3.08;;;;;;;;;;7397150;19;19999;-80
2022/04/02 14:55:58;;;;;;;7.43;4.72;;;;;;;;;;7401342;19;20007;-79
2022/04/02 14:58:25;;;;;;;4.40;2.75;;;;;;;;;;7400135;19;20359;-79
2022/04/02 15:01:10;;;;;;;4.75;2.70;;;;;;;;;;7400230;19;20006;-79
2022/04/02 15:03:57;;;;;;;2.88;2.00;;;;;;;;;;7396488;19;20082;-79
2022/04/02 15:06:54;;;;;;;1.80;1.55;;;;;;;;;;7399462;19;20018;-79
2022/04/02 15:09:40;;;;;;;3.60;2.08;;;;;;;;;;7399107;19;20010;-80
2022/04/02 15:12:10;;;;;;;3.10;2.05;;;;;;;;;;7398826;19;20019;-79
2022/04/02 15:14:38;;;;;;;3.20;2.30;;;;;;;;;;7398667;19;20006;-79
2022/04/02 15:17:24;;;;;;;3.15;1.92;;;;;;;;;;7399211;19;20017;-80